sensor_id;sensor_type;location;lat;lon;timestamp;P1;durP1;ratioP1;P2;durP2;ratioP2
63581;SDS011;49727;51.078;17.066;2022-09-09T00:28:19;10.57;;;7.70;;
63581;SDS011;49727;51.078;17.066;2022-09-09T00:59:02;10.03;;;8.10;;
63581;SDS011;49727;51.078;17.066;2022-09-09T01:29:37;11.17;;;7.77;;
63581;SDS011;49727;51.078;17.066;2022-09-09T01:44:38;10.88;;;8.15;;
63581;SDS011;49727;51.078;17.066;2022-09-09T01:59:45;9.00;;;7.60;;
63581;SDS011;49727;51.078;17.066;2022-09-09T02:14:50;9.83;;;7.50;;
63581;SDS011;49727;51.078;17.066;2022-09-09T02:30:03;9.87;;;7.30;;
63581;SDS011;49727;51.078;17.066;2022-09-09T02:45:04;10.60;;;7.43;;
63581;SDS011;49727;51.078;17.066;2022-09-09T03:00:05;9.00;;;7.13;;
63581;SDS011;49727;51.078;17.066;2022-09-09T03:15:07;12.33;;;7.77;;
63581;SDS011;49727;51.078;17.066;2022-09-09T03:30:07;8.77;;;7.13;;
63581;SDS011;49727;51.078;17.066;2022-09-09T03:45:08;8.82;;;7.43;;
63581;SDS011;49727;51.078;17.066;2022-09-09T04:00:10;11.00;;;8.07;;
63581;SDS011;49727;51.078;17.066;2022-09-09T04:15:11;11.17;;;7.90;;
63581;SDS011;49727;51.078;17.066;2022-09-09T04:30:12;10.65;;;8.18;;
63581;SDS011;49727;51.078;17.066;2022-09-09T04:45:12;10.38;;;7.60;;
63581;SDS011;49727;51.078;17.066;2022-09-09T05:00:13;9.65;;;8.27;;
63581;SDS011;49727;51.078;17.066;2022-09-09T05:15:14;9.67;;;7.87;;
63581;SDS011;49727;51.078;17.066;2022-09-09T05:30:14;9.30;;;6.90;;
63581;SDS011;49727;51.078;17.066;2022-09-09T05:45:15;7.38;;;5.57;;
63581;SDS011;49727;51.078;17.066;2022-09-09T06:00:15;5.22;;;4.72;;
63581;SDS011;49727;51.078;17.066;2022-09-09T06:15:16;8.45;;;4.63;;
63581;SDS011;49727;51.078;17.066;2022-09-09T06:30:17;5.20;;;2.67;;
63581;SDS011;49727;51.078;17.066;2022-09-09T06:45:17;5.40;;;3.20;;
63581;SDS011;49727;51.078;17.066;2022-09-09T07:00:17;3.90;;;2.50;;
63581;SDS011;49727;51.078;17.066;2022-09-09T07:30:19;2.80;;;1.40;;
63581;SDS011;49727;51.078;17.066;2022-09-09T07:45:19;3.90;;;1.53;;
63581;SDS011;49727;51.078;17.066;2022-09-09T08:15:22;4.13;;;1.33;;
63581;SDS011;49727;51.078;17.066;2022-09-09T08:30:22;5.75;;;1.45;;
63581;SDS011;49727;51.078;17.066;2022-09-09T08:45:28;4.60;;;1.20;;
63581;SDS011;49727;51.078;17.066;2022-09-09T09:00:50;4.77;;;1.20;;
63581;SDS011;49727;51.078;17.066;2022-09-09T09:31:35;2.50;;;0.90;;
63581;SDS011;49727;51.078;17.066;2022-09-09T09:46:35;4.85;;;1.00;;
63581;SDS011;49727;51.078;17.066;2022-09-09T10:01:36;2.10;;;0.80;;
63581;SDS011;49727;51.078;17.066;2022-09-09T11:03:15;4.70;;;1.10;;
63581;SDS011;49727;51.078;17.066;2022-09-09T11:18:29;1.60;;;0.90;;
63581;SDS011;49727;51.078;17.066;2022-09-09T11:49:02;1.67;;;0.57;;
63581;SDS011;49727;51.078;17.066;2022-09-09T12:34:10;1.58;;;0.82;;
63581;SDS011;49727;51.078;17.066;2022-09-09T13:04:39;3.00;;;1.00;;
63581;SDS011;49727;51.078;17.066;2022-09-09T13:19:39;3.45;;;1.17;;
63581;SDS011;49727;51.078;17.066;2022-09-09T13:34:51;1.63;;;0.80;;
63581;SDS011;49727;51.078;17.066;2022-09-09T13:49:54;3.10;;;0.97;;
63581;SDS011;49727;51.078;17.066;2022-09-09T14:04:54;4.85;;;0.80;;
63581;SDS011;49727;51.078;17.066;2022-09-09T14:19:55;2.80;;;1.20;;
63581;SDS011;49727;51.078;17.066;2022-09-09T14:34:56;1.25;;;0.90;;
63581;SDS011;49727;51.078;17.066;2022-09-09T14:49:56;3.55;;;0.93;;
63581;SDS011;49727;51.078;17.066;2022-09-09T15:04:56;2.65;;;1.10;;
63581;SDS011;49727;51.078;17.066;2022-09-09T15:19:57;7.87;;;1.47;;
63581;SDS011;49727;51.078;17.066;2022-09-09T15:34:58;3.08;;;1.55;;
63581;SDS011;49727;51.078;17.066;2022-09-09T15:49:58;3.05;;;1.23;;
63581;SDS011;49727;51.078;17.066;2022-09-09T16:04:58;10.10;;;3.80;;
63581;SDS011;49727;51.078;17.066;2022-09-09T16:20:01;6.03;;;3.13;;
63581;SDS011;49727;51.078;17.066;2022-09-09T16:35:02;33.07;;;20.13;;
63581;SDS011;49727;51.078;17.066;2022-09-09T16:50:03;21.90;;;13.00;;
63581;SDS011;49727;51.078;17.066;2022-09-09T17:05:03;5.35;;;2.10;;
63581;SDS011;49727;51.078;17.066;2022-09-09T17:20:04;3.03;;;1.50;;
63581;SDS011;49727;51.078;17.066;2022-09-09T17:35:07;8.90;;;2.03;;
63581;SDS011;49727;51.078;17.066;2022-09-09T17:50:07;8.63;;;2.75;;
63581;SDS011;49727;51.078;17.066;2022-09-09T18:05:09;3.47;;;1.70;;
63581;SDS011;49727;51.078;17.066;2022-09-09T18:20:10;3.40;;;1.92;;
63581;SDS011;49727;51.078;17.066;2022-09-09T18:35:10;3.00;;;1.92;;
63581;SDS011;49727;51.078;17.066;2022-09-09T18:50:10;5.63;;;2.00;;
63581;SDS011;49727;51.078;17.066;2022-09-09T19:05:11;3.67;;;1.80;;
63581;SDS011;49727;51.078;17.066;2022-09-09T19:20:11;4.72;;;2.03;;
63581;SDS011;49727;51.078;17.066;2022-09-09T19:35:11;5.20;;;2.53;;
63581;SDS011;49727;51.078;17.066;2022-09-09T19:50:12;3.50;;;1.83;;
63581;SDS011;49727;51.078;17.066;2022-09-09T20:05:13;4.53;;;1.95;;
63581;SDS011;49727;51.078;17.066;2022-09-09T20:20:14;4.82;;;2.47;;
63581;SDS011;49727;51.078;17.066;2022-09-09T20:35:14;5.45;;;2.30;;
63581;SDS011;49727;51.078;17.066;2022-09-09T20:50:15;6.53;;;3.10;;
63581;SDS011;49727;51.078;17.066;2022-09-09T21:05:16;5.38;;;2.75;;
63581;SDS011;49727;51.078;17.066;2022-09-09T21:20:16;4.03;;;2.08;;
63581;SDS011;49727;51.078;17.066;2022-09-09T21:35:16;4.03;;;2.33;;
63581;SDS011;49727;51.078;17.066;2022-09-09T21:50:18;5.90;;;3.00;;
63581;SDS011;49727;51.078;17.066;2022-09-09T22:20:20;4.78;;;2.45;;
63581;SDS011;49727;51.078;17.066;2022-09-09T22:35:20;4.13;;;2.00;;
63581;SDS011;49727;51.078;17.066;2022-09-09T22:50:21;2.83;;;1.40;;
63581;SDS011;49727;51.078;17.066;2022-09-09T23:05:21;4.28;;;1.90;;
63581;SDS011;49727;51.078;17.066;2022-09-09T23:20:24;2.60;;;1.57;;
63581;SDS011;49727;51.078;17.066;2022-09-09T23:35:25;3.03;;;1.43;;
63581;SDS011;49727;51.078;17.066;2022-09-09T23:50:26;5.00;;;2.40;;
